Time;durP1;ratioP1;P1;durP2;ratioP2;P2;SDS_P1;SDS_P2;PMS_P1;PMS_P2;Temp;Humidity;BMP_temperature;BMP_pressure;BME280_temperature;BME280_humidity;BME280_pressure;Samples;Min_cycle;Max_cycle;Signal;HPM_P1;HPM_P2
2022/07/13 00:00:00;;;;;;;18.10;13.77;;;20.30;99.90;;;;;;4987055;28;20203;-93
2022/07/13 00:02:25;;;;;;;20.53;14.90;;;20.20;99.90;;;;;;5002616;28;20215;-93
2022/07/13 00:04:51;;;;;;;24.53;15.67;;;20.20;99.90;;;;;;4993849;28;20584;-94
2022/07/13 00:07:17;;;;;;;20.00;14.63;;;20.10;99.90;;;;;;4985255;28;20306;-92
2022/07/13 00:09:43;;;;;;;20.23;14.87;;;20.10;99.90;;;;;;4970515;28;20234;-92
2022/07/13 00:12:10;;;;;;;22.23;15.83;;;20.00;99.90;;;;;;5039008;28;20738;-92
2022/07/13 00:14:35;;;;;;;24.33;15.13;;;20.00;99.90;;;;;;4997791;28;20234;-93
2022/07/13 00:17:01;;;;;;;21.27;14.73;;;20.00;99.90;;;;;;5001950;28;20220;-93
2022/07/13 00:19:27;;;;;;;23.00;15.53;;;20.10;99.90;;;;;;5005659;28;20634;-93
2022/07/13 00:21:54;;;;;;;21.93;15.97;;;20.10;99.90;;;;;;5004455;28;20408;-93
2022/07/13 00:24:21;;;;;;;25.10;16.83;;;20.10;99.90;;;;;;5003494;28;20186;-92
2022/07/13 00:26:47;;;;;;;22.67;16.20;;;20.10;99.90;;;;;;5013093;28;20294;-93
2022/07/13 00:29:13;;;;;;;24.23;15.60;;;20.10;99.90;;;;;;5004781;28;20211;-93
2022/07/13 00:31:38;;;;;;;23.17;16.30;;;20.20;99.90;;;;;;4986922;28;20214;-92
2022/07/13 00:34:04;;;;;;;22.87;15.30;;;20.20;99.90;;;;;;4968169;28;20766;-91
2022/07/13 00:36:30;;;;;;;24.00;15.80;;;20.20;99.90;;;;;;5001984;28;20188;-92
2022/07/13 00:38:56;;;;;;;22.23;16.40;;;20.20;99.90;;;;;;4993801;28;20220;-91
2022/07/13 00:41:21;;;;;;;23.93;15.40;;;20.30;99.90;;;;;;5000862;28;20294;-92
2022/07/13 00:43:47;;;;;;;24.87;16.03;;;20.30;99.90;;;;;;5000642;28;20302;-91
2022/07/13 00:46:13;;;;;;;21.67;14.47;;;20.30;99.90;;;;;;4966725;28;20290;-92
2022/07/13 00:48:39;;;;;;;19.27;13.63;;;20.30;99.90;;;;;;4984285;28;20210;-93
2022/07/13 00:51:06;;;;;;;20.30;14.07;;;20.30;99.90;;;;;;4986237;28;20198;-90
2022/07/13 00:53:38;;;;;;;21.80;14.30;;;20.30;99.90;;;;;;4993134;28;20220;-92
2022/07/13 00:56:05;;;;;;;19.57;12.37;;;20.40;99.90;;;;;;5018044;28;20292;-92
2022/07/13 00:58:32;;;;;;;17.70;12.77;;;20.40;99.90;;;;;;4976917;28;20257;-92
2022/07/13 01:00:58;;;;;;;19.40;11.97;;;20.40;99.90;;;;;;4985963;28;20211;-91
2022/07/13 01:03:24;;;;;;;17.60;11.17;;;20.50;99.90;;;;;;4985744;28;20339;-92
2022/07/13 01:05:53;;;;;;;19.27;11.87;;;20.50;99.90;;;;;;4969482;28;20215;-92
2022/07/13 01:08:20;;;;;;;19.03;12.47;;;20.70;99.90;;;;;;5000038;28;20207;-92
2022/07/13 01:10:48;;;;;;;17.73;10.73;;;20.70;99.90;;;;;;5000973;28;20230;-92
2022/07/13 01:13:16;;;;;;;17.97;11.90;;;20.80;99.90;;;;;;4982850;28;20214;-91
2022/07/13 01:15:42;;;;;;;14.93;11.20;;;20.90;99.90;;;;;;4992572;28;20199;-91
2022/07/13 01:18:12;;;;;;;20.23;11.03;;;21.00;99.90;;;;;;5009020;28;20239;-92
2022/07/13 01:20:40;;;;;;;18.20;10.30;;;21.00;99.90;;;;;;5002808;28;20219;-92
2022/07/13 01:23:14;;;;;;;20.00;12.53;;;21.00;99.90;;;;;;5009147;28;20207;-92
2022/07/13 01:25:41;;;;;;;22.07;12.33;;;21.10;99.90;;;;;;5001478;28;20236;-92
2022/07/13 01:28:07;;;;;;;20.20;11.03;;;21.10;99.90;;;;;;5001230;28;20759;-92
2022/07/13 01:30:33;;;;;;;16.83;10.63;;;21.10;99.90;;;;;;4984928;28;20227;-92
2022/07/13 01:32:59;;;;;;;14.47;9.77;;;21.10;99.90;;;;;;4983848;28;20547;-92
2022/07/13 01:35:25;;;;;;;19.57;12.43;;;21.10;99.90;;;;;;4992063;28;20210;-91
2022/07/13 01:37:52;;;;;;;14.43;9.90;;;21.10;99.90;;;;;;5001851;28;20738;-92
2022/07/13 01:40:18;;;;;;;14.90;11.23;;;21.10;99.90;;;;;;4998266;28;20762;-92
2022/07/13 01:42:49;;;;;;;16.07;11.37;;;21.10;99.90;;;;;;4999508;28;20721;-92
2022/07/13 01:45:16;;;;;;;18.60;11.40;;;21.10;99.90;;;;;;4999937;28;20176;-91
2022/07/13 01:47:49;;;;;;;20.30;11.87;;;21.10;99.90;;;;;;4999504;28;20234;-92
2022/07/13 01:50:17;;;;;;;17.10;11.23;;;21.00;99.90;;;;;;5012862;28;20312;-91
2022/07/13 01:52:43;;;;;;;18.13;11.60;;;21.00;99.90;;;;;;5016780;28;20321;-91
2022/07/13 01:55:12;;;;;;;17.33;11.33;;;21.00;99.90;;;;;;5013731;28;20803;-91
2022/07/13 01:57:38;;;;;;;17.97;10.63;;;21.00;99.90;;;;;;5005593;28;20632;-89
2022/07/13 02:00:06;;;;;;;13.57;10.33;;;21.00;99.90;;;;;;5003685;28;20195;-92
2022/07/13 02:02:32;;;;;;;16.60;10.47;;;20.90;99.90;;;;;;5012766;28;20587;-91
2022/07/13 02:04:58;;;;;;;16.00;9.67;;;21.00;99.90;;;;;;4971466;28;20219;-91
2022/07/13 02:07:24;;;;;;;16.17;9.77;;;20.90;99.90;;;;;;4972592;28;20223;-91
2022/07/13 02:09:50;;;;;;;17.87;10.10;;;20.90;99.90;;;;;;4986894;28;20259;-91
2022/07/13 02:12:16;;;;;;;15.37;9.60;;;20.90;99.90;;;;;;4987672;28;20192;-91
2022/07/13 02:14:43;;;;;;;14.33;9.40;;;20.90;99.90;;;;;;4987751;28;20227;-91
2022/07/13 02:17:09;;;;;;;13.57;9.97;;;20.90;99.90;;;;;;4987578;28;20260;-90
2022/07/13 02:19:34;;;;;;;15.10;9.70;;;20.90;99.90;;;;;;5003805;28;20236;-90
2022/07/13 02:22:01;;;;;;;16.80;9.47;;;20.90;99.90;;;;;;4988344;28;20211;-91
2022/07/13 02:24:26;;;;;;;12.87;8.27;;;20.90;99.90;;;;;;4987467;28;20671;-90
2022/07/13 02:26:52;;;;;;;13.83;8.83;;;20.90;99.90;;;;;;5003333;28;20223;-91
2022/07/13 02:29:18;;;;;;;14.43;8.53;;;20.90;99.90;;;;;;4969985;28;20222;-93
2022/07/13 02:31:43;;;;;;;13.03;7.97;;;20.90;99.90;;;;;;4973213;28;20223;-92
2022/07/13 02:34:09;;;;;;;13.07;8.50;;;20.90;99.90;;;;;;4976856;28;20216;-92
2022/07/13 02:36:35;;;;;;;9.43;7.27;;;20.90;99.90;;;;;;4977453;28;20211;-91
2022/07/13 02:39:01;;;;;;;10.73;7.33;;;20.90;99.90;;;;;;4978084;28;20287;-92
2022/07/13 02:41:26;;;;;;;11.20;7.77;;;20.90;99.90;;;;;;5008870;28;20219;-92
2022/07/13 02:43:52;;;;;;;11.27;7.80;;;20.90;99.90;;;;;;4993660;28;20230;-92
2022/07/13 02:46:18;;;;;;;11.37;7.50;;;20.90;99.90;;;;;;4977703;28;20227;-92
2022/07/13 02:48:44;;;;;;;11.60;6.83;;;20.90;99.90;;;;;;4992614;28;20188;-92
2022/07/13 02:51:10;;;;;;;10.67;6.93;;;20.90;99.90;;;;;;5006056;28;20282;-90
2022/07/13 02:53:36;;;;;;;10.17;7.33;;;20.90;99.90;;;;;;5001638;28;20796;-91
2022/07/13 02:56:02;;;;;;;11.10;7.03;;;20.90;99.90;;;;;;4972543;28;20350;-91
2022/07/13 02:58:29;;;;;;;10.30;7.20;;;20.90;99.90;;;;;;4987877;28;20771;-91
2022/07/13 03:00:54;;;;;;;11.10;6.67;;;20.80;99.90;;;;;;4987782;28;20214;-93
2022/07/13 03:03:20;;;;;;;11.27;6.93;;;20.90;99.90;;;;;;4972405;28;20187;-93
2022/07/13 03:05:46;;;;;;;10.57;6.73;;;20.80;99.90;;;;;;4990361;28;20310;-90
2022/07/13 03:08:12;;;;;;;11.37;6.67;;;20.90;99.90;;;;;;4971748;28;20215;-90
2022/07/13 03:10:38;;;;;;;10.10;7.07;;;20.90;99.90;;;;;;4988450;28;20216;-90
2022/07/13 03:13:03;;;;;;;9.13;6.63;;;20.80;99.90;;;;;;4988047;28;20274;-90
2022/07/13 03:15:29;;;;;;;9.33;7.03;;;20.80;99.90;;;;;;4988583;28;20196;-90
2022/07/13 03:17:55;;;;;;;10.03;7.10;;;20.80;99.90;;;;;;5003474;28;20218;-90
2022/07/13 03:20:22;;;;;;;10.67;6.80;;;20.80;99.90;;;;;;4986298;28;20242;-90
2022/07/13 03:22:49;;;;;;;9.27;6.27;;;20.70;99.90;;;;;;4984324;28;20255;-90
2022/07/13 03:25:15;;;;;;;11.10;8.00;;;20.70;99.90;;;;;;4983045;28;20221;-90
2022/07/13 03:27:41;;;;;;;10.03;5.93;;;20.70;99.90;;;;;;4987516;28;20200;-91
2022/07/13 03:30:08;;;;;;;12.00;6.17;;;20.70;99.90;;;;;;4984473;28;20190;-90
2022/07/13 03:32:33;;;;;;;8.10;5.50;;;20.70;99.90;;;;;;5017083;28;20256;-90
2022/07/13 03:34:59;;;;;;;7.00;5.50;;;20.70;99.90;;;;;;5022595;28;20223;-91
2022/07/13 03:37:25;;;;;;;7.30;4.57;;;20.60;99.90;;;;;;5024109;28;20211;-90
2022/07/13 03:39:51;;;;;;;7.07;4.80;;;20.60;99.90;;;;;;5026010;28;20187;-91
2022/07/13 03:42:17;;;;;;;6.73;4.13;;;20.70;99.90;;;;;;5025915;28;20259;-90
2022/07/13 03:44:43;;;;;;;4.27;3.17;;;20.80;99.90;;;;;;5027098;28;20231;-90
2022/07/13 03:47:09;;;;;;;5.13;3.43;;;20.80;99.90;;;;;;5023228;28;20254;-90
2022/07/13 03:49:34;;;;;;;4.20;3.30;;;20.80;99.90;;;;;;5021856;28;20288;-90
2022/07/13 03:52:00;;;;;;;7.40;3.10;;;20.80;99.90;;;;;;5005362;28;20219;-91
2022/07/13 03:54:26;;;;;;;4.87;3.27;;;20.90;99.90;;;;;;5022636;28;20287;-91
2022/07/13 03:56:52;;;;;;;4.27;2.83;;;20.90;99.90;;;;;;5004392;28;20226;-90
2022/07/13 03:59:20;;;;;;;3.57;3.00;;;20.90;99.90;;;;;;5018096;28;20226;-90
2022/07/13 04:01:46;;;;;;;3.77;2.70;;;20.90;99.90;;;;;;5019759;28;20219;-90
2022/07/13 04:04:12;;;;;;;4.33;3.37;;;20.90;99.90;;;;;;5020728;28;20215;-90
2022/07/13 04:06:37;;;;;;;6.10;3.33;;;21.00;99.90;;;;;;5022975;28;20221;-90
2022/07/13 04:09:04;;;;;;;3.77;3.30;;;20.90;99.90;;;;;;5021821;28;20297;-90
2022/07/13 04:11:30;;;;;;;5.70;3.70;;;21.00;99.90;;;;;;5021547;28;20215;-90
2022/07/13 04:13:56;;;;;;;3.90;3.50;;;21.00;99.90;;;;;;5004922;28;20226;-90
2022/07/13 04:16:21;;;;;;;4.93;3.87;;;21.00;99.90;;;;;;5023088;28;20221;-90
2022/07/13 04:18:47;;;;;;;6.40;3.20;;;21.00;99.90;;;;;;5004514;28;20179;-90
2022/07/13 04:21:14;;;;;;;6.13;3.60;;;21.00;99.90;;;;;;5023720;28;20198;-90
2022/07/13 04:23:40;;;;;;;6.07;4.17;;;21.00;99.90;;;;;;5022347;28;20217;-90
2022/07/13 04:26:06;;;;;;;5.50;4.00;;;21.00;99.90;;;;;;5039081;28;20771;-90
2022/07/13 04:28:32;;;;;;;5.73;3.93;;;21.00;99.90;;;;;;5020895;28;20243;-90
2022/07/13 04:30:58;;;;;;;3.13;2.83;;;20.90;99.90;;;;;;5004598;28;20276;-90
2022/07/13 04:33:24;;;;;;;6.27;3.40;;;20.90;99.90;;;;;;5007954;28;20197;-90
2022/07/13 04:35:49;;;;;;;5.10;3.70;;;20.80;99.90;;;;;;5022009;28;21284;-90
2022/07/13 04:38:15;;;;;;;6.13;3.57;;;20.80;99.90;;;;;;5023187;28;20257;-89
2022/07/13 04:40:41;;;;;;;5.83;3.40;;;20.80;99.90;;;;;;5003043;28;20217;-87
2022/07/13 04:43:07;;;;;;;4.63;3.73;;;20.70;99.90;;;;;;5019419;28;20214;-88
2022/07/13 04:45:33;;;;;;;3.87;3.37;;;20.70;99.90;;;;;;5039795;28;20200;-90
2022/07/13 04:47:59;;;;;;;4.13;3.73;;;20.60;99.90;;;;;;5022609;28;20211;-89
2022/07/13 04:50:25;;;;;;;6.97;3.47;;;20.60;99.90;;;;;;5019972;28;20702;-89
2022/07/13 04:52:51;;;;;;;5.63;4.23;;;20.60;99.90;;;;;;5005274;28;20296;-88
2022/07/13 04:55:17;;;;;;;6.07;4.00;;;20.50;99.90;;;;;;5027450;28;21070;-89
2022/07/13 04:57:43;;;;;;;7.43;4.67;;;20.50;99.90;;;;;;5011080;28;20178;-90
2022/07/13 05:00:10;;;;;;;6.83;3.77;;;20.50;99.90;;;;;;5021967;28;20250;-90
2022/07/13 05:02:36;;;;;;;10.23;4.37;;;20.50;99.90;;;;;;5004543;28;20223;-89
2022/07/13 05:05:03;;;;;;;8.67;4.47;;;20.50;99.90;;;;;;5037644;28;20283;-89
2022/07/13 05:07:29;;;;;;;4.67;3.63;;;20.50;99.90;;;;;;5013240;28;20248;-90
2022/07/13 05:09:56;;;;;;;5.17;3.77;;;20.50;99.90;;;;;;5019961;28;20556;-89
2022/07/13 05:12:21;;;;;;;10.60;4.17;;;20.60;99.90;;;;;;5022900;28;20191;-90
2022/07/13 05:14:47;;;;;;;7.50;4.73;;;20.60;99.90;;;;;;5021094;28;20237;-89
2022/07/13 05:17:13;;;;;;;7.60;4.90;;;20.70;99.90;;;;;;5021843;28;20221;-90
2022/07/13 05:19:39;;;;;;;9.70;5.17;;;20.70;99.90;;;;;;5021741;28;20221;-89
2022/07/13 05:22:05;;;;;;;5.47;4.53;;;20.80;99.90;;;;;;5019433;28;20211;-89
2022/07/13 05:24:31;;;;;;;13.60;4.87;;;20.90;99.90;;;;;;5024052;28;20269;-89
2022/07/13 05:26:56;;;;;;;5.93;5.13;;;21.10;99.90;;;;;;5022577;28;20226;-89
2022/07/13 05:29:22;;;;;;;6.27;4.40;;;21.60;99.90;;;;;;5008210;28;20207;-89
2022/07/13 05:31:48;;;;;;;5.33;4.83;;;22.00;99.90;;;;;;5025127;28;20218;-89
2022/07/13 05:34:14;;;;;;;8.77;4.83;;;23.00;99.90;;;;;;5024390;28;20233;-89
2022/07/13 05:36:40;;;;;;;6.40;4.83;;;25.00;99.90;;;;;;5009048;28;20285;-90
2022/07/13 05:39:06;;;;;;;12.07;6.00;;;25.20;99.90;;;;;;5009957;28;20191;-90
2022/07/13 05:41:34;;;;;;;8.37;4.77;;;24.40;99.90;;;;;;5024767;28;20293;-90
2022/07/13 05:44:00;;;;;;;6.63;4.57;;;25.20;99.90;;;;;;5024178;28;20214;-90
2022/07/13 05:46:26;;;;;;;8.38;5.30;;;25.60;99.90;;;;;;5024065;28;21328;-90
2022/07/13 05:48:52;;;;;;;5.75;5.10;;;24.40;99.90;;;;;;5024447;28;20187;-90
2022/07/13 05:51:18;;;;;;;9.40;6.18;;;23.50;99.90;;;;;;5025237;28;20187;-90
2022/07/13 05:53:46;;;;;;;13.18;6.53;;;24.90;99.90;;;;;;5032934;28;20629;-90
2022/07/13 05:56:13;;;;;;;7.72;6.10;;;26.60;99.90;;;;;;5024774;28;20221;-90
2022/07/13 05:58:39;;;;;;;9.93;6.43;;;28.60;99.90;;;;;;5012556;28;20218;-90
2022/07/13 06:01:05;;;;;;;6.93;5.55;;;29.00;99.90;;;;;;5006095;28;20729;-90
2022/07/13 06:03:31;;;;;;;7.13;5.68;;;30.00;99.90;;;;;;5014525;28;20202;-89
2022/07/13 06:05:57;;;;;;;8.75;5.72;;;30.00;99.90;;;;;;5029495;28;20302;-90
2022/07/13 06:08:22;;;;;;;9.77;5.80;;;30.50;99.90;;;;;;4986382;28;20219;-90
2022/07/13 06:10:48;;;;;;;11.00;5.38;;;30.60;99.90;;;;;;4983685;28;20215;-90
2022/07/13 06:13:14;;;;;;;6.20;5.13;;;31.90;99.90;;;;;;5001915;28;20224;-90
2022/07/13 06:15:40;;;;;;;9.80;6.88;;;32.50;99.90;;;;;;5013243;28;20194;-91
2022/07/13 06:18:05;;;;;;;9.60;6.65;;;32.90;99.90;;;;;;4989361;28;20198;-90
2022/07/13 06:20:31;;;;;;;8.52;6.50;;;33.20;99.90;;;;;;5004784;28;20711;-90
2022/07/13 06:23:09;;;;;;;8.77;6.88;;;33.00;99.90;;;;;;5004002;28;20305;-91
2022/07/13 06:25:35;;;;;;;11.02;5.63;;;33.40;99.90;;;;;;5004230;28;20210;-88
2022/07/13 06:28:01;;;;;;;8.35;5.93;;;31.20;99.90;;;;;;5011034;28;20268;-89
2022/07/13 06:30:27;;;;;;;6.70;5.28;;;31.30;99.90;;;;;;4996259;28;20192;-89
2022/07/13 06:32:53;;;;;;;7.20;5.55;;;32.00;99.90;;;;;;5004178;28;20219;-90
2022/07/13 06:35:19;;;;;;;10.50;6.47;;;33.70;99.90;;;;;;5001484;28;20216;-90
2022/07/13 06:37:44;;;;;;;8.45;5.28;;;33.90;99.90;;;;;;5006461;28;20203;-91
2022/07/13 06:40:11;;;;;;;6.88;5.38;;;32.50;99.90;;;;;;5005497;28;20286;-91
2022/07/13 06:42:36;;;;;;;8.50;5.63;;;32.60;99.90;;;;;;5040884;28;20191;-91
2022/07/13 06:45:03;;;;;;;6.97;5.78;;;33.90;99.90;;;;;;5040485;28;20179;-95
2022/07/13 06:47:29;;;;;;;7.60;5.78;;;33.40;99.90;;;;;;5025390;28;20260;-93
2022/07/13 06:49:55;;;;;;;7.40;5.53;;;33.80;99.90;;;;;;5008149;28;20219;-94
2022/07/13 06:52:20;;;;;;;8.32;6.00;;;34.60;99.90;;;;;;5023859;28;20218;-92
2022/07/13 06:54:46;;;;;;;8.70;5.30;;;34.10;99.90;;;;;;5005156;28;20191;-91
2022/07/13 06:57:12;;;;;;;8.73;5.68;;;34.60;99.90;;;;;;5007063;28;20225;-92
2022/07/13 06:59:37;;;;;;;11.48;5.15;;;33.80;99.90;;;;;;5021638;28;20207;-90
2022/07/13 07:02:03;;;;;;;7.60;5.05;;;35.50;99.90;;;;;;5007638;28;20229;-91
2022/07/13 07:04:29;;;;;;;6.85;4.90;;;37.00;99.90;;;;;;5008470;28;20656;-91
2022/07/13 07:06:56;;;;;;;8.18;4.90;;;37.60;99.90;;;;;;5025312;28;20215;-90
2022/07/13 07:09:22;;;;;;;7.35;5.13;;;38.10;99.60;;;;;;5025482;28;20246;-91
2022/07/13 07:11:48;;;;;;;5.93;4.75;;;38.40;97.80;;;;;;5023368;28;20219;-91
2022/07/13 07:14:14;;;;;;;5.95;4.85;;;38.40;98.00;;;;;;5023846;28;20264;-91
2022/07/13 07:16:42;;;;;;;6.20;4.53;;;38.40;97.80;;;;;;5038856;28;20245;-91
2022/07/13 07:19:09;;;;;;;8.18;4.78;;;38.30;97.10;;;;;;5007167;28;20702;-91
2022/07/13 07:21:35;;;;;;;4.68;4.07;;;38.30;96.70;;;;;;5023422;28;20650;-90
2022/07/13 07:24:00;;;;;;;6.78;4.63;;;38.40;96.60;;;;;;5023106;28;20198;-90
2022/07/13 07:26:26;;;;;;;4.55;3.72;;;38.30;96.30;;;;;;5006484;28;20234;-90
2022/07/13 07:28:52;;;;;;;5.38;3.80;;;38.20;96.70;;;;;;5021540;28;20710;-92
2022/07/13 07:31:18;;;;;;;5.80;3.75;;;38.20;96.00;;;;;;5010402;28;20720;-91
2022/07/13 07:33:43;;;;;;;9.93;4.60;;;38.10;95.10;;;;;;5020504;28;20194;-91
2022/07/13 07:36:09;;;;;;;5.07;3.92;;;38.30;94.80;;;;;;5006693;28;20191;-94
2022/07/13 07:38:35;;;;;;;4.60;4.20;;;37.50;94.70;;;;;;5007693;28;20215;-89
2022/07/13 07:41:01;;;;;;;4.70;3.78;;;37.40;95.00;;;;;;5021779;28;20217;-90
2022/07/13 07:43:27;;;;;;;8.38;4.10;;;35.50;96.00;;;;;;5005044;28;21142;-90
2022/07/13 07:45:53;;;;;;;5.63;3.63;;;33.10;99.90;;;;;;5005658;28;20269;-91
2022/07/13 07:48:19;;;;;;;4.80;4.25;;;31.80;99.90;;;;;;5024285;28;20190;-90
2022/07/13 07:50:46;;;;;;;4.57;3.70;;;31.70;99.90;;;;;;5005705;28;20214;-91
2022/07/13 07:53:11;;;;;;;7.75;3.67;;;32.00;99.90;;;;;;5004599;28;20801;-89
2022/07/13 07:55:37;;;;;;;6.00;3.72;;;34.00;99.90;;;;;;5022030;28;20211;-91
2022/07/13 07:58:03;;;;;;;5.47;3.63;;;34.20;99.90;;;;;;5021825;28;20223;-91
2022/07/13 08:00:30;;;;;;;4.13;3.70;;;34.30;98.60;;;;;;5014821;28;20666;-91
2022/07/13 08:03:02;;;;;;;4.88;3.83;;;33.30;99.90;;;;;;4986824;28;20218;-89
2022/07/13 08:05:29;;;;;;;5.30;3.30;;;34.10;99.90;;;;;;4985151;28;20215;-89
2022/07/13 08:07:56;;;;;;;5.15;2.88;;;34.00;98.70;;;;;;5025188;28;20219;-91
2022/07/13 08:10:21;;;;;;;3.75;3.20;;;34.30;99.90;;;;;;5019643;28;20224;-91
2022/07/13 08:12:47;;;;;;;5.93;3.05;;;33.30;99.90;;;;;;5022649;28;20721;-90
2022/07/13 08:15:13;;;;;;;4.45;4.05;;;33.40;99.90;;;;;;5008539;28;20187;-92
2022/07/13 08:17:39;;;;;;;4.45;3.10;;;34.20;99.90;;;;;;5021840;28;20215;-92
2022/07/13 08:20:06;;;;;;;7.25;3.25;;;34.10;99.90;;;;;;5038857;28;20215;-90
2022/07/13 08:22:32;;;;;;;3.80;3.28;;;34.00;99.60;;;;;;5024141;28;20702;-89
2022/07/13 08:24:58;;;;;;;5.70;3.28;;;33.60;99.90;;;;;;5003569;28;20203;-91
2022/07/13 08:27:25;;;;;;;3.08;2.75;;;33.50;99.90;;;;;;4970497;28;20751;-91
2022/07/13 08:29:51;;;;;;;3.78;2.85;;;32.60;99.90;;;;;;5000659;28;20350;-91
2022/07/13 08:32:17;;;;;;;3.28;2.88;;;31.20;99.90;;;;;;4986038;28;20299;-91
2022/07/13 08:40:11;;;;;;;3.22;2.80;;;28.30;99.90;;;;;;5003525;28;20215;-90
2022/07/13 08:42:39;;;;;;;5.18;3.70;;;27.70;99.90;;;;;;4969248;28;20187;-91
2022/07/13 08:45:05;;;;;;;6.03;3.67;;;28.50;99.90;;;;;;5009702;28;20250;-91
2022/07/13 08:47:31;;;;;;;5.20;3.78;;;28.90;99.90;;;;;;4975815;28;20373;-89
2022/07/13 08:50:08;;;;;;;6.53;3.60;;;28.70;99.90;;;;;;5013750;28;20757;-89
2022/07/13 08:52:35;;;;;;;3.33;2.60;;;29.50;99.90;;;;;;5021437;28;21059;-91
2022/07/13 08:55:05;;;;;;;4.53;2.90;;;29.10;99.90;;;;;;5021620;28;20690;-90
2022/07/13 08:57:36;;;;;;;3.88;2.83;;;28.90;99.90;;;;;;5022005;28;20183;-90
2022/07/13 09:00:05;;;;;;;3.20;2.90;;;28.00;99.90;;;;;;5037879;28;20771;-90
2022/07/13 09:02:31;;;;;;;5.55;3.40;;;28.10;99.90;;;;;;5019386;28;20751;-90
2022/07/13 09:04:58;;;;;;;5.15;3.08;;;28.70;99.90;;;;;;5023265;28;20302;-90
2022/07/13 09:07:24;;;;;;;4.60;2.90;;;28.80;99.90;;;;;;5023086;28;20383;-92
2022/07/13 09:09:56;;;;;;;3.33;3.03;;;28.20;99.90;;;;;;5020607;28;20241;-91
2022/07/13 09:12:24;;;;;;;3.45;3.15;;;28.80;99.90;;;;;;5039893;28;20397;-91
2022/07/13 09:14:54;;;;;;;4.03;3.45;;;28.80;99.90;;;;;;5038507;28;20219;-90
2022/07/13 09:17:42;;;;;;;5.13;3.13;;;28.00;99.90;;;;;;5022375;28;20214;-90
2022/07/13 09:20:18;;;;;;;5.95;3.40;;;28.20;99.90;;;;;;5022858;28;20691;-91
2022/07/13 09:22:56;;;;;;;3.72;3.40;;;28.80;99.90;;;;;;5004927;28;20322;-91
2022/07/13 09:25:33;;;;;;;6.38;3.67;;;28.30;99.90;;;;;;5000714;28;20578;-90
2022/07/13 09:28:04;;;;;;;3.78;3.38;;;28.20;99.90;;;;;;4983614;28;20822;-91
2022/07/13 09:30:30;;;;;;;3.90;3.05;;;27.60;99.90;;;;;;5018832;28;20242;-92
2022/07/13 09:32:58;;;;;;;3.83;3.42;;;27.20;99.90;;;;;;5000644;28;20207;-90
2022/07/13 09:35:42;;;;;;;4.97;3.63;;;26.60;99.90;;;;;;4984975;28;20433;-91
2022/07/13 09:38:08;;;;;;;6.97;3.90;;;27.60;99.90;;;;;;5019267;28;20239;-90
2022/07/13 09:40:34;;;;;;;3.72;3.30;;;27.80;99.90;;;;;;4983891;28;20214;-90
2022/07/13 09:48:31;;;;;;;3.90;3.15;;;27.30;99.90;;;;;;5000306;28;20269;-91
2022/07/13 09:50:57;;;;;;;4.45;2.92;;;28.60;99.90;;;;;;4983354;28;20294;-91
2022/07/13 09:53:28;;;;;;;3.83;2.83;;;29.00;99.90;;;;;;4992963;28;20212;-90
2022/07/13 09:55:55;;;;;;;3.42;2.60;;;29.10;99.90;;;;;;4999584;28;20224;-90
2022/07/13 09:58:32;;;;;;;4.88;3.10;;;29.00;99.90;;;;;;5000732;28;20212;-88
2022/07/13 10:00:59;;;;;;;2.95;2.35;;;29.10;99.90;;;;;;4999118;28;20219;-88
2022/07/13 10:03:30;;;;;;;2.90;2.50;;;28.60;99.90;;;;;;5000762;28;20266;-90
2022/07/13 10:05:58;;;;;;;3.00;2.65;;;28.20;99.90;;;;;;5007723;28;20306;-89
2022/07/13 10:08:23;;;;;;;3.95;2.30;;;27.90;99.90;;;;;;5001627;28;20222;-91
2022/07/13 10:10:52;;;;;;;2.65;2.42;;;28.20;99.90;;;;;;5000671;28;20231;-90
2022/07/13 10:13:18;;;;;;;3.67;2.15;;;28.30;99.90;;;;;;5019464;28;20286;-90
2022/07/13 10:15:47;;;;;;;5.72;2.25;;;27.70;99.90;;;;;;4988062;28;20548;-89
2022/07/13 10:18:28;;;;;;;2.55;2.10;;;27.00;99.90;;;;;;5005561;28;20186;-90
2022/07/13 10:21:25;;;;;;;3.22;2.92;;;26.20;99.90;;;;;;5011340;28;20315;-89
2022/07/13 10:23:51;;;;;;;3.70;1.83;;;25.90;99.90;;;;;;5012375;28;20683;-89
2022/07/13 10:26:26;;;;;;;3.17;2.05;;;25.60;99.90;;;;;;5004792;28;20273;-89
2022/07/13 10:29:02;;;;;;;4.53;2.33;;;24.90;99.90;;;;;;5004085;28;20230;-90
2022/07/13 10:31:29;;;;;;;2.60;2.40;;;24.70;99.90;;;;;;5002873;28;20252;-90
2022/07/13 10:33:55;;;;;;;3.25;2.95;;;24.90;99.90;;;;;;4994998;28;20213;-87
2022/07/13 10:37:06;;;;;;;3.92;2.55;;;24.80;99.90;;;;;;5003910;28;20200;-90
2022/07/13 10:39:32;;;;;;;3.10;2.45;;;25.40;99.90;;;;;;5015374;28;20227;-92
2022/07/13 10:41:57;;;;;;;2.88;2.55;;;25.40;99.90;;;;;;4973092;28;20191;-91
2022/07/13 10:44:40;;;;;;;2.55;2.22;;;25.40;99.90;;;;;;5017883;28;20231;-90
2022/07/13 10:47:08;;;;;;;3.78;2.55;;;25.60;99.90;;;;;;5007082;28;20223;-91
2022/07/13 10:49:48;;;;;;;5.00;2.80;;;24.90;99.90;;;;;;5004491;28;20709;-91
2022/07/13 10:52:25;;;;;;;2.80;2.22;;;24.80;99.90;;;;;;4989358;28;20211;-91
2022/07/13 10:55:22;;;;;;;2.67;2.30;;;24.40;99.90;;;;;;5038190;28;20183;-91
2022/07/13 10:57:48;;;;;;;2.97;2.50;;;24.40;99.90;;;;;;5010888;28;20817;-91
2022/07/13 11:00:18;;;;;;;1.85;1.73;;;24.00;99.90;;;;;;4985719;28;20187;-91
2022/07/13 11:02:48;;;;;;;4.43;2.53;;;23.80;99.90;;;;;;5003503;28;20224;-90
2022/07/13 11:05:36;;;;;;;3.53;2.40;;;24.00;99.90;;;;;;5018259;28;20672;-89
2022/07/13 11:08:15;;;;;;;9.73;2.60;;;24.50;99.90;;;;;;5034921;28;20717;-90
2022/07/13 11:10:42;;;;;;;6.35;2.88;;;24.50;99.90;;;;;;4987941;28;20319;-90
2022/07/13 11:13:10;;;;;;;3.78;2.83;;;24.80;99.90;;;;;;4986460;28;20222;-91
2022/07/13 11:15:55;;;;;;;5.40;2.47;;;24.30;99.90;;;;;;5003878;28;20307;-91
2022/07/13 11:18:20;;;;;;;2.25;2.05;;;24.10;99.90;;;;;;4997451;28;20191;-91
2022/07/13 11:20:56;;;;;;;2.45;2.25;;;23.90;99.90;;;;;;5036270;28;20261;-90
2022/07/13 11:26:23;;;;;;;5.03;2.42;;;24.50;99.90;;;;;;4988947;28;20570;-90
2022/07/13 11:29:12;;;;;;;2.22;2.08;;;24.10;99.90;;;;;;5002070;28;20216;-90
2022/07/13 11:31:39;;;;;;;5.55;2.50;;;23.60;99.90;;;;;;5004927;28;20212;-90
2022/07/13 11:34:06;;;;;;;4.45;2.08;;;23.10;99.90;;;;;;4985790;28;20218;-89
2022/07/13 11:36:33;;;;;;;4.20;2.22;;;23.30;99.90;;;;;;4986773;28;20718;-89
2022/07/13 11:38:59;;;;;;;2.83;2.13;;;23.40;99.90;;;;;;4985631;28;20250;-89
2022/07/13 11:41:25;;;;;;;3.00;2.70;;;22.80;99.90;;;;;;5001656;28;20231;-90
2022/07/13 11:43:51;;;;;;;6.00;2.60;;;23.00;99.90;;;;;;5001493;28;20605;-88
2022/07/13 11:46:25;;;;;;;4.75;2.60;;;22.80;99.90;;;;;;5003096;28;20228;-90
2022/07/13 11:49:06;;;;;;;3.55;2.30;;;22.70;99.90;;;;;;4987146;28;20194;-88
2022/07/13 11:51:32;;;;;;;3.70;2.40;;;22.50;99.90;;;;;;5035884;28;20246;-89
2022/07/13 11:54:12;;;;;;;7.03;2.75;;;22.70;99.90;;;;;;5002011;28;20216;-91
2022/07/13 11:56:58;;;;;;;5.03;2.85;;;22.40;99.90;;;;;;4994616;28;20222;-93
2022/07/13 11:59:42;;;;;;;2.35;2.15;;;22.70;99.90;;;;;;5019115;28;20803;-89
2022/07/13 12:02:09;;;;;;;3.35;2.80;;;22.70;99.90;;;;;;5002875;28;20203;-89
2022/07/13 12:04:46;;;;;;;3.00;2.13;;;22.40;99.90;;;;;;4968912;28;20226;-89
2022/07/13 12:07:21;;;;;;;2.20;2.00;;;22.20;99.90;;;;;;5017401;28;20215;-90
2022/07/13 12:10:04;;;;;;;2.63;2.03;;;22.70;99.90;;;;;;5033477;28;20654;-90
2022/07/13 12:12:33;;;;;;;5.95;2.05;;;22.80;99.90;;;;;;4997882;28;20188;-90
2022/07/13 12:14:59;;;;;;;6.95;2.08;;;22.80;99.90;;;;;;5001793;28;20243;-89
2022/07/13 12:17:27;;;;;;;4.03;2.22;;;22.50;99.90;;;;;;5002560;28;20710;-90
2022/07/13 12:20:08;;;;;;;2.10;1.90;;;22.50;99.90;;;;;;5018804;28;20219;-88
2022/07/13 12:22:33;;;;;;;3.38;1.58;;;22.80;99.90;;;;;;4988878;28;20292;-89
2022/07/13 12:24:59;;;;;;;7.43;1.52;;;22.50;99.90;;;;;;4985693;28;20367;-92
2022/07/13 12:27:26;;;;;;;4.43;1.92;;;22.40;99.90;;;;;;4973489;28;20234;-90
2022/07/13 12:30:08;;;;;;;4.38;1.90;;;22.30;99.90;;;;;;5001362;28;20273;-90
2022/07/13 12:33:04;;;;;;;3.22;1.33;;;22.20;99.90;;;;;;5009625;28;20216;-89
2022/07/13 12:35:38;;;;;;;2.00;1.40;;;22.80;99.90;;;;;;5001560;28;20199;-89
2022/07/13 12:38:08;;;;;;;4.15;1.67;;;22.70;99.90;;;;;;4994909;28;20203;-89
2022/07/13 12:40:40;;;;;;;5.70;1.88;;;22.60;99.90;;;;;;4999106;28;20262;-90
2022/07/13 12:43:18;;;;;;;3.85;1.50;;;22.60;99.90;;;;;;5015295;28;20561;-94
2022/07/13 12:45:53;;;;;;;1.80;1.30;;;22.80;99.90;;;;;;4999956;28;20348;-91
2022/07/13 12:48:24;;;;;;;2.10;1.17;;;22.00;99.90;;;;;;4999564;28;20178;-87
2022/07/13 12:51:05;;;;;;;6.10;1.60;;;22.30;99.90;;;;;;4983632;28;20207;-88
2022/07/13 12:53:46;;;;;;;3.03;1.57;;;22.50;99.90;;;;;;5002707;28;20214;-88
2022/07/13 12:56:13;;;;;;;1.88;1.00;;;22.40;99.90;;;;;;5017692;28;20269;-88
2022/07/13 12:58:44;;;;;;;6.10;1.85;;;22.50;99.90;;;;;;5002241;28;20211;-89
2022/07/13 13:01:25;;;;;;;1.58;1.40;;;22.30;99.90;;;;;;4968779;28;20219;-88